sensor_id;sensor_type;location;lat;lon;timestamp;pressure;altitude;pressure_sealevel;temperature;humidity
36092;BME280;22147;52.388;13.390;2023-04-06T00:00:10;101540.59;;;0.05;100.00
36092;BME280;22147;52.388;13.390;2023-04-06T00:02:42;101541.31;;;0.00;100.00
36092;BME280;22147;52.388;13.390;2023-04-06T00:05:12;101536.53;;;-0.05;100.00
36092;BME280;22147;52.388;13.390;2023-04-06T00:07:42;101532.63;;;-0.09;100.00
36092;BME280;22147;52.388;13.390;2023-04-06T00:10:11;101534.16;;;-0.13;100.00
36092;BME280;22147;52.388;13.390;2023-04-06T00:12:39;101531.09;;;-0.16;100.00
36092;BME280;22147;52.388;13.390;2023-04-06T00:15:08;101532.63;;;-0.21;100.00
36092;BME280;22147;52.388;13.390;2023-04-06T00:17:36;101530.63;;;-0.25;100.00
36092;BME280;22147;52.388;13.390;2023-04-06T00:20:05;101529.66;;;-0.31;100.00
36092;BME280;22147;52.388;13.390;2023-04-06T00:22:36;101521.94;;;-0.34;100.00
36092;BME280;22147;52.388;13.390;2023-04-06T00:25:05;101524.31;;;-0.37;100.00
36092;BME280;22147;52.388;13.390;2023-04-06T00:27:33;101517.88;;;-0.43;100.00
36092;BME280;22147;52.388;13.390;2023-04-06T00:30:03;101519.66;;;-0.49;100.00
36092;BME280;22147;52.388;13.390;2023-04-06T00:32:35;101520.63;;;-0.55;100.00
36092;BME280;22147;52.388;13.390;2023-04-06T00:35:06;101523.19;;;-0.60;100.00
36092;BME280;22147;52.388;13.390;2023-04-06T00:37:37;101522.00;;;-0.64;100.00
36092;BME280;22147;52.388;13.390;2023-04-06T00:40:08;101520.81;;;-0.68;100.00
36092;BME280;22147;52.388;13.390;2023-04-06T00:42:40;101516.06;;;-0.73;100.00
36092;BME280;22147;52.388;13.390;2023-04-06T00:45:11;101517.59;;;-0.77;100.00
36092;BME280;22147;52.388;13.390;2023-04-06T00:47:41;101513.66;;;-0.81;100.00
36092;BME280;22147;52.388;13.390;2023-04-06T00:50:12;101521.50;;;-0.85;100.00
36092;BME280;22147;52.388;13.390;2023-04-06T00:52:40;101519.44;;;-0.89;100.00
36092;BME280;22147;52.388;13.390;2023-04-06T00:55:09;101516.59;;;-0.94;100.00
36092;BME280;22147;52.388;13.390;2023-04-06T00:57:37;101517.03;;;-0.97;100.00
36092;BME280;22147;52.388;13.390;2023-04-06T01:00:06;101519.41;;;-1.01;100.00
36092;BME280;22147;52.388;13.390;2023-04-06T01:02:37;101512.53;;;-1.04;100.00
36092;BME280;22147;52.388;13.390;2023-04-06T01:05:06;101517.38;;;-1.06;100.00
36092;BME280;22147;52.388;13.390;2023-04-06T01:07:34;101510.47;;;-1.08;100.00
36092;BME280;22147;52.388;13.390;2023-04-06T01:10:03;101515.59;;;-1.12;100.00
36092;BME280;22147;52.388;13.390;2023-04-06T01:12:34;101513.31;;;-1.15;100.00
36092;BME280;22147;52.388;13.390;2023-04-06T01:15:06;101516.84;;;-1.14;100.00
36092;BME280;22147;52.388;13.390;2023-04-06T01:17:36;101509.53;;;-1.14;100.00
36092;BME280;22147;52.388;13.390;2023-04-06T01:20:07;101505.94;;;-1.14;100.00
36092;BME280;22147;52.388;13.390;2023-04-06T01:22:37;101506.19;;;-1.16;100.00
36092;BME280;22147;52.388;13.390;2023-04-06T01:25:06;101515.44;;;-1.17;100.00
36092;BME280;22147;52.388;13.390;2023-04-06T01:27:37;101505.81;;;-1.19;100.00
36092;BME280;22147;52.388;13.390;2023-04-06T01:30:07;101516.13;;;-1.21;100.00
36092;BME280;22147;52.388;13.390;2023-04-06T01:32:37;101510.06;;;-1.24;100.00
36092;BME280;22147;52.388;13.390;2023-04-06T01:35:05;101506.53;;;-1.24;100.00
36092;BME280;22147;52.388;13.390;2023-04-06T01:37:34;101514.09;;;-1.26;100.00
36092;BME280;22147;52.388;13.390;2023-04-06T01:40:05;101513.50;;;-1.28;100.00
36092;BME280;22147;52.388;13.390;2023-04-06T01:42:36;101515.63;;;-1.30;100.00
36092;BME280;22147;52.388;13.390;2023-04-06T01:45:07;101507.06;;;-1.34;100.00
36092;BME280;22147;52.388;13.390;2023-04-06T01:47:37;101503.97;;;-1.37;100.00
36092;BME280;22147;52.388;13.390;2023-04-06T01:50:07;101509.88;;;-1.40;100.00
36092;BME280;22147;52.388;13.390;2023-04-06T01:52:38;101504.03;;;-1.44;100.00
36092;BME280;22147;52.388;13.390;2023-04-06T01:55:08;101501.78;;;-1.47;100.00
36092;BME280;22147;52.388;13.390;2023-04-06T01:57:38;101502.00;;;-1.49;100.00
36092;BME280;22147;52.388;13.390;2023-04-06T02:00:10;101502.47;;;-1.52;100.00
36092;BME280;22147;52.388;13.390;2023-04-06T02:02:41;101506.72;;;-1.56;100.00
36092;BME280;22147;52.388;13.390;2023-04-06T02:05:14;101502.78;;;-1.60;100.00
36092;BME280;22147;52.388;13.390;2023-04-06T02:07:47;101501.56;;;-1.64;100.00
36092;BME280;22147;52.388;13.390;2023-04-06T02:10:17;101505.81;;;-1.68;100.00
36092;BME280;22147;52.388;13.390;2023-04-06T02:12:48;101508.41;;;-1.73;100.00
36092;BME280;22147;52.388;13.390;2023-04-06T02:15:18;101500.88;;;-1.78;100.00
36092;BME280;22147;52.388;13.390;2023-04-06T02:17:49;101504.91;;;-1.80;100.00
36092;BME280;22147;52.388;13.390;2023-04-06T02:20:19;101510.19;;;-1.86;100.00
36092;BME280;22147;52.388;13.390;2023-04-06T02:22:51;101502.94;;;-1.92;100.00
36092;BME280;22147;52.388;13.390;2023-04-06T02:25:19;101507.16;;;-1.96;100.00
36092;BME280;22147;52.388;13.390;2023-04-06T02:27:49;101507.63;;;-1.99;100.00
36092;BME280;22147;52.388;13.390;2023-04-06T02:30:19;101511.84;;;-2.03;100.00
36092;BME280;22147;52.388;13.390;2023-04-06T02:32:49;101503.09;;;-2.05;100.00
36092;BME280;22147;52.388;13.390;2023-04-06T02:35:20;101504.94;;;-2.06;100.00
36092;BME280;22147;52.388;13.390;2023-04-06T02:37:50;101501.63;;;-2.08;100.00
36092;BME280;22147;52.388;13.390;2023-04-06T02:40:20;101506.09;;;-2.13;100.00
36092;BME280;22147;52.388;13.390;2023-04-06T02:42:50;101502.16;;;-2.17;100.00
36092;BME280;22147;52.388;13.390;2023-04-06T02:45:20;101513.47;;;-2.20;100.00
36092;BME280;22147;52.388;13.390;2023-04-06T02:47:50;101513.09;;;-2.24;100.00
36092;BME280;22147;52.388;13.390;2023-04-06T02:50:20;101507.47;;;-2.29;100.00
36092;BME280;22147;52.388;13.390;2023-04-06T02:52:51;101514.44;;;-2.33;100.00
36092;BME280;22147;52.388;13.390;2023-04-06T02:55:22;101511.34;;;-2.37;100.00
36092;BME280;22147;52.388;13.390;2023-04-06T02:57:52;101509.25;;;-2.41;100.00
36092;BME280;22147;52.388;13.390;2023-04-06T03:00:22;101506.38;;;-2.47;100.00
36092;BME280;22147;52.388;13.390;2023-04-06T03:02:52;101516.88;;;-2.50;100.00
36092;BME280;22147;52.388;13.390;2023-04-06T03:05:22;101510.47;;;-2.56;100.00
36092;BME280;22147;52.388;13.390;2023-04-06T03:07:52;101514.44;;;-2.58;100.00
36092;BME280;22147;52.388;13.390;2023-04-06T03:10:22;101518.66;;;-2.62;100.00
36092;BME280;22147;52.388;13.390;2023-04-06T03:12:52;101511.75;;;-2.65;100.00
36092;BME280;22147;52.388;13.390;2023-04-06T03:15:22;101509.50;;;-2.68;100.00
36092;BME280;22147;52.388;13.390;2023-04-06T03:17:52;101511.81;;;-2.72;100.00
36092;BME280;22147;52.388;13.390;2023-04-06T03:20:22;101519.56;;;-2.75;100.00
36092;BME280;22147;52.388;13.390;2023-04-06T03:22:51;101509.16;;;-2.78;100.00
36092;BME280;22147;52.388;13.390;2023-04-06T03:25:21;101515.66;;;-2.79;100.00
36092;BME280;22147;52.388;13.390;2023-04-06T03:27:51;101516.69;;;-2.80;100.00
36092;BME280;22147;52.388;13.390;2023-04-06T03:30:21;101518.59;;;-2.81;100.00
36092;BME280;22147;52.388;13.390;2023-04-06T03:32:51;101517.16;;;-2.83;100.00
36092;BME280;22147;52.388;13.390;2023-04-06T03:35:21;101520.91;;;-2.84;100.00
36092;BME280;22147;52.388;13.390;2023-04-06T03:37:51;101525.72;;;-2.87;100.00
36092;BME280;22147;52.388;13.390;2023-04-06T03:40:21;101524.28;;;-2.89;100.00
36092;BME280;22147;52.388;13.390;2023-04-06T03:42:50;101521.78;;;-2.91;100.00
36092;BME280;22147;52.388;13.390;2023-04-06T03:45:18;101529.31;;;-2.93;100.00
36092;BME280;22147;52.388;13.390;2023-04-06T03:47:46;101528.94;;;-2.96;100.00
36092;BME280;22147;52.388;13.390;2023-04-06T03:50:15;101530.19;;;-2.99;100.00
36092;BME280;22147;52.388;13.390;2023-04-06T03:52:43;101535.25;;;-3.02;100.00
36092;BME280;22147;52.388;13.390;2023-04-06T03:55:12;101530.22;;;-3.05;100.00
36092;BME280;22147;52.388;13.390;2023-04-06T03:57:40;101543.19;;;-3.08;100.00
36092;BME280;22147;52.388;13.390;2023-04-06T04:00:09;101541.56;;;-3.09;100.00
36092;BME280;22147;52.388;13.390;2023-04-06T04:02:40;101546.38;;;-3.11;100.00
36092;BME280;22147;52.388;13.390;2023-04-06T04:05:09;101541.16;;;-3.12;100.00
36092;BME280;22147;52.388;13.390;2023-04-06T04:07:37;101544.06;;;-3.14;100.00
36092;BME280;22147;52.388;13.390;2023-04-06T04:10:06;101547.84;;;-3.15;100.00
36092;BME280;22147;52.388;13.390;2023-04-06T04:12:34;101541.81;;;-3.17;100.00
36092;BME280;22147;52.388;13.390;2023-04-06T04:15:03;101546.63;;;-3.19;100.00
36092;BME280;22147;52.388;13.390;2023-04-06T04:17:31;101547.91;;;-3.21;100.00
36092;BME280;22147;52.388;13.390;2023-04-06T04:20:00;101550.81;;;-3.23;100.00
36092;BME280;22147;52.388;13.390;2023-04-06T04:22:28;101548.09;;;-3.23;100.00
36092;BME280;22147;52.388;13.390;2023-04-06T04:24:56;101550.59;;;-3.21;100.00
36092;BME280;22147;52.388;13.390;2023-04-06T04:27:25;101556.03;;;-3.21;100.00
36092;BME280;22147;52.388;13.390;2023-04-06T04:29:53;101551.44;;;-3.21;100.00
36092;BME280;22147;52.388;13.390;2023-04-06T04:32:22;101541.59;;;-3.22;100.00
36092;BME280;22147;52.388;13.390;2023-04-06T04:34:50;101552.72;;;-3.23;100.00
36092;BME280;22147;52.388;13.390;2023-04-06T04:37:19;101553.53;;;-3.23;100.00
36092;BME280;22147;52.388;13.390;2023-04-06T04:39:47;101549.38;;;-3.25;100.00
36092;BME280;22147;52.388;13.390;2023-04-06T04:42:16;101558.56;;;-3.27;100.00
36092;BME280;22147;52.388;13.390;2023-04-06T04:44:44;101551.47;;;-3.28;100.00
36092;BME280;22147;52.388;13.390;2023-04-06T04:47:12;101550.41;;;-3.27;100.00
36092;BME280;22147;52.388;13.390;2023-04-06T04:49:41;101549.56;;;-3.27;100.00
36092;BME280;22147;52.388;13.390;2023-04-06T04:52:10;101551.22;;;-3.26;100.00
36092;BME280;22147;52.388;13.390;2023-04-06T04:54:38;101553.94;;;-3.26;100.00
36092;BME280;22147;52.388;13.390;2023-04-06T04:57:10;101552.72;;;-3.23;100.00
36092;BME280;22147;52.388;13.390;2023-04-06T04:59:40;101562.31;;;-3.21;100.00
36092;BME280;22147;52.388;13.390;2023-04-06T05:02:10;101552.06;;;-3.19;100.00
36092;BME280;22147;52.388;13.390;2023-04-06T05:04:40;101554.56;;;-3.17;100.00
36092;BME280;22147;52.388;13.390;2023-04-06T05:07:10;101556.38;;;-3.11;100.00
36092;BME280;22147;52.388;13.390;2023-04-06T05:09:40;101566.84;;;-3.08;100.00
36092;BME280;22147;52.388;13.390;2023-04-06T05:12:12;101561.56;;;-3.03;100.00
36092;BME280;22147;52.388;13.390;2023-04-06T05:14:46;101562.59;;;-2.97;100.00
36092;BME280;22147;52.388;13.390;2023-04-06T05:17:16;101563.63;;;-2.92;100.00
36092;BME280;22147;52.388;13.390;2023-04-06T05:19:44;101560.03;;;-2.85;100.00
36092;BME280;22147;52.388;13.390;2023-04-06T05:22:13;101568.97;;;-2.78;100.00
36092;BME280;22147;52.388;13.390;2023-04-06T05:24:44;101562.44;;;-2.71;100.00
36092;BME280;22147;52.388;13.390;2023-04-06T05:27:13;101561.94;;;-2.61;100.00
36092;BME280;22147;52.388;13.390;2023-04-06T05:29:41;101566.09;;;-2.52;100.00
36092;BME280;22147;52.388;13.390;2023-04-06T05:32:10;101566.19;;;-2.40;100.00
36092;BME280;22147;52.388;13.390;2023-04-06T05:34:38;101573.41;;;-2.27;100.00
36092;BME280;22147;52.388;13.390;2023-04-06T05:37:06;101577.09;;;-2.15;100.00
36092;BME280;22147;52.388;13.390;2023-04-06T05:39:35;101574.69;;;-2.05;100.00
36092;BME280;22147;52.388;13.390;2023-04-06T05:42:05;101584.56;;;-1.85;100.00
36092;BME280;22147;52.388;13.390;2023-04-06T05:44:40;101579.81;;;-1.71;100.00
36092;BME280;22147;52.388;13.390;2023-04-06T05:47:10;101583.44;;;-1.59;100.00
36092;BME280;22147;52.388;13.390;2023-04-06T05:49:42;101583.53;;;-1.47;100.00
36092;BME280;22147;52.388;13.390;2023-04-06T05:52:11;101577.63;;;-1.26;100.00
36092;BME280;22147;52.388;13.390;2023-04-06T05:54:40;101582.44;;;-1.09;100.00
36092;BME280;22147;52.388;13.390;2023-04-06T05:57:08;101579.22;;;-0.88;100.00
36092;BME280;22147;52.388;13.390;2023-04-06T05:59:37;101579.28;;;-0.76;100.00
36092;BME280;22147;52.388;13.390;2023-04-06T06:02:05;101577.22;;;-0.50;100.00
36092;BME280;22147;52.388;13.390;2023-04-06T06:04:34;101583.19;;;-0.30;100.00
36092;BME280;22147;52.388;13.390;2023-04-06T06:07:02;101581.69;;;-0.02;100.00
36092;BME280;22147;52.388;13.390;2023-04-06T06:09:30;101582.75;;;0.20;100.00
36092;BME280;22147;52.388;13.390;2023-04-06T06:12:00;101585.00;;;0.35;100.00
36092;BME280;22147;52.388;13.390;2023-04-06T06:14:30;101576.56;;;0.49;100.00
36092;BME280;22147;52.388;13.390;2023-04-06T06:17:00;101582.94;;;0.66;100.00
36092;BME280;22147;52.388;13.390;2023-04-06T06:19:30;101579.31;;;0.89;100.00
36092;BME280;22147;52.388;13.390;2023-04-06T06:22:00;101579.09;;;1.19;100.00
36092;BME280;22147;52.388;13.390;2023-04-06T06:24:31;101587.09;;;1.38;100.00
36092;BME280;22147;52.388;13.390;2023-04-06T06:27:02;101582.91;;;1.64;100.00
36092;BME280;22147;52.388;13.390;2023-04-06T06:29:31;101579.84;;;1.94;100.00
36092;BME280;22147;52.388;13.390;2023-04-06T06:32:01;101586.44;;;2.32;100.00
36092;BME280;22147;52.388;13.390;2023-04-06T06:34:31;101583.81;;;2.59;100.00
36092;BME280;22147;52.388;13.390;2023-04-06T06:37:01;101582.75;;;2.60;100.00
36092;BME280;22147;52.388;13.390;2023-04-06T06:39:32;101584.22;;;2.90;100.00
36092;BME280;22147;52.388;13.390;2023-04-06T06:42:02;101581.31;;;3.02;100.00
36092;BME280;22147;52.388;13.390;2023-04-06T06:44:32;101581.38;;;3.34;100.00
36092;BME280;22147;52.388;13.390;2023-04-06T06:47:02;101584.00;;;3.78;100.00
36092;BME280;22147;52.388;13.390;2023-04-06T06:49:32;101591.94;;;4.07;100.00
36092;BME280;22147;52.388;13.390;2023-04-06T06:52:02;101592.06;;;4.22;100.00
36092;BME280;22147;52.388;13.390;2023-04-06T06:54:32;101594.63;;;4.39;98.95
36092;BME280;22147;52.388;13.390;2023-04-06T06:57:02;101594.34;;;4.88;96.39
36092;BME280;22147;52.388;13.390;2023-04-06T06:59:32;101593.00;;;4.96;95.41
36092;BME280;22147;52.388;13.390;2023-04-06T07:02:02;101588.94;;;5.09;94.52
36092;BME280;22147;52.388;13.390;2023-04-06T07:04:32;101591.47;;;5.31;93.26
36092;BME280;22147;52.388;13.390;2023-04-06T07:07:02;101590.38;;;5.37;89.76
36092;BME280;22147;52.388;13.390;2023-04-06T07:09:32;101595.41;;;5.81;89.66
36092;BME280;22147;52.388;13.390;2023-04-06T07:12:03;101598.72;;;6.19;86.61
36092;BME280;22147;52.388;13.390;2023-04-06T07:14:34;101596.50;;;6.42;85.75
36092;BME280;22147;52.388;13.390;2023-04-06T07:17:03;101600.03;;;6.63;86.44
36092;BME280;22147;52.388;13.390;2023-04-06T07:19:34;101601.28;;;6.96;80.95
36092;BME280;22147;52.388;13.390;2023-04-06T07:22:04;101594.28;;;6.54;84.19
36092;BME280;22147;52.388;13.390;2023-04-06T07:24:34;101598.66;;;6.60;84.92
36092;BME280;22147;52.388;13.390;2023-04-06T07:27:04;101599.03;;;7.08;81.27
36092;BME280;22147;52.388;13.390;2023-04-06T07:29:34;101603.97;;;7.17;81.38
36092;BME280;22147;52.388;13.390;2023-04-06T07:32:04;101597.09;;;7.14;79.63
36092;BME280;22147;52.388;13.390;2023-04-06T07:34:34;101598.03;;;7.44;78.39
36092;BME280;22147;52.388;13.390;2023-04-06T07:37:04;101596.22;;;8.03;77.93
36092;BME280;22147;52.388;13.390;2023-04-06T07:39:34;101593.25;;;8.52;73.15
36092;BME280;22147;52.388;13.390;2023-04-06T07:42:05;101597.66;;;8.83;69.06
36092;BME280;22147;52.388;13.390;2023-04-06T07:44:39;101593.34;;;8.95;69.25
36092;BME280;22147;52.388;13.390;2023-04-06T07:47:06;101600.00;;;8.94;66.70
36092;BME280;22147;52.388;13.390;2023-04-06T07:49:36;101592.41;;;8.81;66.66
36092;BME280;22147;52.388;13.390;2023-04-06T07:52:06;101595.50;;;8.99;62.30
36092;BME280;22147;52.388;13.390;2023-04-06T07:54:36;101599.00;;;8.85;65.52
36092;BME280;22147;52.388;13.390;2023-04-06T07:57:06;101590.69;;;8.85;64.38
36092;BME280;22147;52.388;13.390;2023-04-06T07:59:36;101601.34;;;8.97;62.44
36092;BME280;22147;52.388;13.390;2023-04-06T08:02:06;101595.38;;;9.09;62.25
36092;BME280;22147;52.388;13.390;2023-04-06T08:04:36;101592.78;;;9.36;64.51
36092;BME280;22147;52.388;13.390;2023-04-06T08:07:06;101592.78;;;9.36;61.75
36092;BME280;22147;52.388;13.390;2023-04-06T08:09:36;101588.59;;;9.58;59.63
36092;BME280;22147;52.388;13.390;2023-04-06T08:12:07;101589.59;;;9.67;57.83
36092;BME280;22147;52.388;13.390;2023-04-06T08:14:40;101585.75;;;9.82;57.85
36092;BME280;22147;52.388;13.390;2023-04-06T08:17:08;101591.88;;;9.79;61.28
36092;BME280;22147;52.388;13.390;2023-04-06T08:19:38;101594.75;;;10.07;55.05
36092;BME280;22147;52.388;13.390;2023-04-06T08:22:07;101594.66;;;10.31;54.72
36092;BME280;22147;52.388;13.390;2023-04-06T08:24:37;101592.66;;;10.78;53.17
36092;BME280;22147;52.388;13.390;2023-04-06T08:27:07;101593.63;;;10.41;55.66
36092;BME280;22147;52.388;13.390;2023-04-06T08:29:37;101593.47;;;10.92;51.97
36092;BME280;22147;52.388;13.390;2023-04-06T08:32:07;101592.00;;;11.09;49.20
36092;BME280;22147;52.388;13.390;2023-04-06T08:34:37;101593.25;;;10.75;48.20
36092;BME280;22147;52.388;13.390;2023-04-06T08:37:07;101588.91;;;10.69;48.32
36092;BME280;22147;52.388;13.390;2023-04-06T08:39:36;101590.06;;;11.09;46.77
36092;BME280;22147;52.388;13.390;2023-04-06T08:42:20;101593.72;;;11.32;48.07
36092;BME280;22147;52.388;13.390;2023-04-06T08:44:50;101591.47;;;11.20;46.05
36092;BME280;22147;52.388;13.390;2023-04-06T08:47:22;101587.84;;;11.34;46.59
36092;BME280;22147;52.388;13.390;2023-04-06T08:49:55;101588.47;;;11.67;47.84
36092;BME280;22147;52.388;13.390;2023-04-06T08:52:26;101582.13;;;11.89;44.73
36092;BME280;22147;52.388;13.390;2023-04-06T08:54:55;101589.00;;;11.33;43.54
36092;BME280;22147;52.388;13.390;2023-04-06T08:57:26;101587.22;;;11.73;45.87
36092;BME280;22147;52.388;13.390;2023-04-06T08:59:57;101588.25;;;12.54;40.91
36092;BME280;22147;52.388;13.390;2023-04-06T09:02:31;101588.34;;;12.09;42.69
36092;BME280;22147;52.388;13.390;2023-04-06T09:05:03;101583.72;;;11.68;44.22
36092;BME280;22147;52.388;13.390;2023-04-06T09:07:34;101591.47;;;12.16;43.32
36092;BME280;22147;52.388;13.390;2023-04-06T09:10:06;101588.44;;;12.04;42.13
36092;BME280;22147;52.388;13.390;2023-04-06T09:12:37;101595.69;;;11.32;42.28
36092;BME280;22147;52.388;13.390;2023-04-06T09:15:20;101591.44;;;11.34;44.60
36092;BME280;22147;52.388;13.390;2023-04-06T09:17:53;101578.22;;;11.76;42.95
36092;BME280;22147;52.388;13.390;2023-04-06T09:20:25;101574.19;;;11.82;44.03
36092;BME280;22147;52.388;13.390;2023-04-06T09:22:57;101580.91;;;12.58;41.36
36092;BME280;22147;52.388;13.390;2023-04-06T09:25:28;101576.97;;;12.59;38.47
36092;BME280;22147;52.388;13.390;2023-04-06T09:28:04;101576.41;;;12.48;39.48
36092;BME280;22147;52.388;13.390;2023-04-06T09:30:34;101575.19;;;12.32;38.43
36092;BME280;22147;52.388;13.390;2023-04-06T09:33:04;101574.72;;;12.30;39.82
36092;BME280;22147;52.388;13.390;2023-04-06T09:35:32;101567.06;;;12.44;38.06
36092;BME280;22147;52.388;13.390;2023-04-06T09:38:11;101571.53;;;12.54;38.03
36092;BME280;22147;52.388;13.390;2023-04-06T09:40:51;101572.78;;;12.79;36.70
36092;BME280;22147;52.388;13.390;2023-04-06T09:43:29;101573.75;;;12.12;37.24
36092;BME280;22147;52.388;13.390;2023-04-06T09:46:01;101568.97;;;12.66;36.71
36092;BME280;22147;52.388;13.390;2023-04-06T09:48:35;101568.59;;;13.08;35.05
36092;BME280;22147;52.388;13.390;2023-04-06T09:51:11;101560.88;;;13.04;36.47
36092;BME280;22147;52.388;13.390;2023-04-06T09:53:52;101551.13;;;12.76;35.53
36092;BME280;22147;52.388;13.390;2023-04-06T09:56:39;101547.44;;;13.07;37.78
36092;BME280;22147;52.388;13.390;2023-04-06T10:02:33;101550.44;;;13.89;33.35
36092;BME280;22147;52.388;13.390;2023-04-06T10:05:43;101543.41;;;13.56;33.25
36092;BME280;22147;52.388;13.390;2023-04-06T10:08:24;101542.75;;;13.51;34.98
36092;BME280;22147;52.388;13.390;2023-04-06T10:11:02;101549.06;;;13.08;33.64
36092;BME280;22147;52.388;13.390;2023-04-06T10:13:33;101543.97;;;13.01;33.34
36092;BME280;22147;52.388;13.390;2023-04-06T10:16:04;101544.66;;;13.07;35.15
36092;BME280;22147;52.388;13.390;2023-04-06T10:18:41;101534.75;;;12.03;39.64
36092;BME280;22147;52.388;13.390;2023-04-06T10:21:23;101541.59;;;12.68;36.06
36092;BME280;22147;52.388;13.390;2023-04-06T10:24:01;101530.22;;;13.04;37.37
36092;BME280;22147;52.388;13.390;2023-04-06T10:26:30;101544.84;;;13.10;34.76
36092;BME280;22147;52.388;13.390;2023-04-06T10:29:04;101547.53;;;12.35;35.25
36092;BME280;22147;52.388;13.390;2023-04-06T10:31:32;101541.44;;;12.02;36.11
36092;BME280;22147;52.388;13.390;2023-04-06T10:34:03;101539.69;;;12.46;38.25
36092;BME280;22147;52.388;13.390;2023-04-06T10:36:34;101543.94;;;12.43;35.74
36092;BME280;22147;52.388;13.390;2023-04-06T10:39:05;101534.41;;;11.82;36.24
36092;BME280;22147;52.388;13.390;2023-04-06T10:41:45;101540.78;;;11.37;38.46
36092;BME280;22147;52.388;13.390;2023-04-06T10:44:22;101543.31;;;11.48;38.64
36092;BME280;22147;52.388;13.390;2023-04-06T10:46:55;101543.13;;;12.12;35.22
36092;BME280;22147;52.388;13.390;2023-04-06T10:49:25;101534.38;;;12.67;34.87
36092;BME280;22147;52.388;13.390;2023-04-06T10:51:57;101534.84;;;12.60;36.39
36092;BME280;22147;52.388;13.390;2023-04-06T10:54:27;101534.53;;;12.62;33.03
36092;BME280;22147;52.388;13.390;2023-04-06T10:56:57;101527.66;;;12.28;34.01
36092;BME280;22147;52.388;13.390;2023-04-06T10:59:29;101537.41;;;11.49;37.40
36092;BME280;22147;52.388;13.390;2023-04-06T11:01:58;101528.34;;;11.21;35.76
36092;BME280;22147;52.388;13.390;2023-04-06T11:04:28;101526.69;;;10.56;38.09
36092;BME280;22147;52.388;13.390;2023-04-06T11:06:58;101521.63;;;11.58;38.20
36092;BME280;22147;52.388;13.390;2023-04-06T11:09:30;101527.22;;;12.92;35.86
36092;BME280;22147;52.388;13.390;2023-04-06T11:12:04;101528.47;;;13.78;35.53
36092;BME280;22147;52.388;13.390;2023-04-06T11:14:39;101521.72;;;13.62;31.62
36092;BME280;22147;52.388;13.390;2023-04-06T11:17:09;101512.50;;;13.27;30.73
36092;BME280;22147;52.388;13.390;2023-04-06T11:19:39;101510.69;;;13.13;31.73
36092;BME280;22147;52.388;13.390;2023-04-06T11:22:09;101509.25;;;13.33;33.29
36092;BME280;22147;52.388;13.390;2023-04-06T11:24:40;101507.97;;;13.57;32.56
36092;BME280;22147;52.388;13.390;2023-04-06T11:27:07;101497.06;;;13.03;33.83
36092;BME280;22147;52.388;13.390;2023-04-06T11:29:38;101501.41;;;12.60;32.38
36092;BME280;22147;52.388;13.390;2023-04-06T11:32:09;101493.09;;;12.87;36.12
36092;BME280;22147;52.388;13.390;2023-04-06T11:34:39;101495.63;;;13.23;33.91
36092;BME280;22147;52.388;13.390;2023-04-06T11:37:12;101497.41;;;13.89;30.67
36092;BME280;22147;52.388;13.390;2023-04-06T11:39:48;101483.44;;;13.80;32.81
36092;BME280;22147;52.388;13.390;2023-04-06T11:42:28;101493.03;;;13.53;30.95
36092;BME280;22147;52.388;13.390;2023-04-06T11:44:59;101491.34;;;13.17;33.00
36092;BME280;22147;52.388;13.390;2023-04-06T11:47:35;101490.50;;;12.90;31.79
36092;BME280;22147;52.388;13.390;2023-04-06T11:50:14;101484.16;;;12.50;33.33
36092;BME280;22147;52.388;13.390;2023-04-06T11:52:45;101488.16;;;12.66;32.52
36092;BME280;22147;52.388;13.390;2023-04-06T11:55:17;101482.09;;;12.73;32.21
36092;BME280;22147;52.388;13.390;2023-04-06T11:57:47;101482.19;;;12.50;35.04
36092;BME280;22147;52.388;13.390;2023-04-06T12:00:17;101480.44;;;12.72;32.77
36092;BME280;22147;52.388;13.390;2023-04-06T12:02:49;101470.56;;;12.48;32.81
36092;BME280;22147;52.388;13.390;2023-04-06T12:05:19;101476.00;;;12.62;30.40
36092;BME280;22147;52.388;13.390;2023-04-06T12:07:47;101474.16;;;12.49;32.92
36092;BME280;22147;52.388;13.390;2023-04-06T12:10:16;101470.97;;;12.73;32.58
36092;BME280;22147;52.388;13.390;2023-04-06T12:12:44;101463.59;;;13.12;32.50
36092;BME280;22147;52.388;13.390;2023-04-06T12:15:13;101461.34;;;13.49;31.83
36092;BME280;22147;52.388;13.390;2023-04-06T12:17:41;101466.88;;;12.96;33.83
36092;BME280;22147;52.388;13.390;2023-04-06T12:20:10;101466.22;;;12.99;31.71
36092;BME280;22147;52.388;13.390;2023-04-06T12:22:53;101466.34;;;12.59;31.84
36092;BME280;22147;52.388;13.390;2023-04-06T12:25:21;101468.72;;;12.35;35.18
36092;BME280;22147;52.388;13.390;2023-04-06T12:27:50;101461.56;;;12.51;33.78
36092;BME280;22147;52.388;13.390;2023-04-06T12:30:18;101464.47;;;13.12;31.62
36092;BME280;22147;52.388;13.390;2023-04-06T12:32:46;101464.47;;;12.37;32.99
36092;BME280;22147;52.388;13.390;2023-04-06T12:35:18;101457.13;;;12.59;32.44
36092;BME280;22147;52.388;13.390;2023-04-06T12:37:46;101459.19;;;12.93;33.01
36092;BME280;22147;52.388;13.390;2023-04-06T12:40:15;101454.06;;;12.87;32.48
36092;BME280;22147;52.388;13.390;2023-04-06T12:42:43;101458.31;;;12.75;31.94
36092;BME280;22147;52.388;13.390;2023-04-06T12:45:15;101452.94;;;13.14;32.28
36092;BME280;22147;52.388;13.390;2023-04-06T12:47:45;101455.59;;;12.35;32.65
36092;BME280;22147;52.388;13.390;2023-04-06T12:50:15;101447.84;;;11.38;32.13
36092;BME280;22147;52.388;13.390;2023-04-06T12:52:45;101442.47;;;11.42;34.05
36092;BME280;22147;52.388;13.390;2023-04-06T12:55:15;101445.06;;;11.61;34.66